Global Enterprise — 3FCJ6 — position and weather

sailwx.info

Track history (hours):
 
Tides and Currents Weather Stations Pressure Air Temp Water Temp Dewpoint Dewpoint Depression Visibility Wind Speed Wind Dir Waves Ship Positions

Global Enterprise

Last reported at 2014-Oct-23 15:33 UTC. Time now 2014-Oct-26 02:59 UTC.
Position N 30°60' E 122°29'.

Length 290 m; draft 8.3 m.

Type: Cargo ship. MMSI: 356308000.

Date/timePositionNaut miles runAvg speedWind from/ knotsBaromVisibWave heightAir tempDewpointWater temp
2014-Oct-23 15:33N 30°60' E 122°29'2610.4
2014-Oct-23 13:06N 31°05' E 121°60'1810.8
2014-Oct-23 11:28N 31°17' E 121°44'1111.8
2014-Oct-23 10:33N 31°23' E 121°34'9 8.8
2014-Oct-23 09:33N 31°29' E 121°26'9 9.0
2014-Oct-23 08:33N 31°35' E 121°18'9 6.6
2014-Oct-23 07:09N 31°41' E 121°10'0 0.0
2014-Oct-23 06:15N 31°41' E 121°10'0 0.0
2014-Oct-23 05:33N 31°41' E 121°10'0 0.0
2014-Oct-23 04:15N 31°41' E 121°10'0 0.0
2014-Oct-23 03:22N 31°41' E 121°10'0 0.0
2014-Oct-23 02:16N 31°41' E 121°10'0 0.0
2014-Oct-23 01:10N 31°41' E 121°10'0 0.0
2014-Oct-23 00:06N 31°41' E 121°10'0 0.0
2014-Oct-22 23:33N 31°41' E 121°10'0 0.0
2014-Oct-22 22:24N 31°41' E 121°10'0 0.0
2014-Oct-22 21:30N 31°41' E 121°10'0 0.0
2014-Oct-22 20:33N 31°41' E 121°10'0 0.0
2014-Oct-22 19:33N 31°41' E 121°10'0 0.0
2014-Oct-22 18:33N 31°41' E 121°10'0 0.0
2014-Oct-22 17:33N 31°41' E 121°10'0 0.0
2014-Oct-22 16:27N 31°41' E 121°10'0 0.0
2014-Oct-22 15:30N 31°41' E 121°10'0 0.0
2014-Oct-22 14:22N 31°41' E 121°10'0 0.0
2014-Oct-22 13:27N 31°41' E 121°10'0 0.0
2014-Oct-22 12:28N 31°41' E 121°10'0 0.0
2014-Oct-22 11:31N 31°41' E 121°10'0 0.0
2014-Oct-22 10:15N 31°41' E 121°10'0 0.0
2014-Oct-22 09:27N 31°41' E 121°10'0 0.0
2014-Oct-22 08:33N 31°41' E 121°10'0 0.0
2014-Oct-22 07:27N 31°41' E 121°10'0 0.0
2014-Oct-22 06:21N 31°41' E 121°10'0 0.0
2014-Oct-22 05:16N 31°41' E 121°10'0 0.0
2014-Oct-22 04:18N 31°41' E 121°10'0 0.0
2014-Oct-22 03:30N 31°41' E 121°10'0 0.0
2014-Oct-22 02:33N 31°41' E 121°10'0 0.0
2014-Oct-22 01:33N 31°41' E 121°10'0 0.0
2014-Oct-22 00:18N 31°41' E 121°10'0 0.0
2014-Oct-21 23:30N 31°41' E 121°10'0 0.0
2014-Oct-21 22:30N 31°41' E 121°10'0 0.0
2014-Oct-21 21:33N 31°41' E 121°10'0 0.0
2014-Oct-21 20:30N 31°41' E 121°10'0 0.0
2014-Oct-21 19:33N 31°41' E 121°10'0 0.0
2014-Oct-21 18:27N 31°41' E 121°10'0 0.0
2014-Oct-21 17:33N 31°41' E 121°10'0 0.0
2014-Oct-21 16:24N 31°41' E 121°10'0 0.0
2014-Oct-21 15:33N 31°41' E 121°10'0 0.0
2014-Oct-21 14:21N 31°41' E 121°10'0 0.0
2014-Oct-21 09:21N 31°41' E 121°10'0 0.0
2014-Oct-21 08:29N 31°41' E 121°10'4 4.3
2014-Oct-21 07:33N 31°39' E 121°14'5 4.6
2014-Oct-21 06:32N 31°36' E 121°19'0 0.3
2014-Oct-21 05:26N 31°36' E 121°18'4 4.3
2014-Oct-21 04:33N 31°33' E 121°20'1111.1
2014-Oct-21 03:33N 31°26' E 121°30'9 9.3
2014-Oct-21 02:33N 31°21' E 121°40'10 9.9
2014-Oct-21 01:33N 31°17' E 121°50'1110.5
2014-Oct-21 00:28N 31°14' E 122°03'1011.2
2014-Oct-20 23:33N 31°09' E 122°13'1211.7
2014-Oct-20 22:33N 31°06' E 122°27'7 6.4
2014-Oct-20 21:31N 31°10' E 122°33'4 0.3
2014-Oct-20 09:22N 31°13' E 122°36'0 0.0
2014-Oct-18 18:19N 31°13' E 122°37'0 0.0
2014-Oct-18 03:31N 31°13' E 122°37'0 0.0
2014-Oct-17 15:04N 31°13' E 122°37'80 2.5
2014-Oct-16 06:33N 29°54' E 122°55'1110.5
2014-Oct-16 05:31N 29°47' E 122°45'1110.9
2014-Oct-16 04:33N 29°40' E 122°36'1111.0
2014-Oct-16 03:32N 29°43' E 122°24'1010.8
2014-Oct-16 02:34N 29°49' E 122°14'1111.0
2014-Oct-16 01:33N 29°55' E 122°04'9 9.3
2014-Oct-16 00:33N 29°56' E 121°53'0 0.2
2014-Oct-15 23:27N 29°56' E 121°53'0 0.0
2014-Oct-15 22:27N 29°56' E 121°53'0 0.0
2014-Oct-15 20:27N 29°56' E 121°53'0 0.0
2014-Oct-15 16:15N 29°56' E 121°53'0 0.0
2014-Oct-15 15:12N 29°56' E 121°53'0 0.0
2014-Oct-15 14:21N 29°56' E 121°53'0 0.0
2014-Oct-15 13:04N 29°56' E 121°53'0 0.0
2014-Oct-15 12:33N 29°56' E 121°53'0 0.0
2014-Oct-15 11:12N 29°56' E 121°53'0 0.0
2014-Oct-15 09:30N 29°56' E 121°53'0 0.0
2014-Oct-15 08:24N 29°56' E 121°53'0 0.0
2014-Oct-15 07:30N 29°56' E 121°53'0 0.0
2014-Oct-15 05:30N 29°56' E 121°53'0 0.0
2014-Oct-15 04:27N 29°56' E 121°53'0 0.0
2014-Oct-15 03:33N 29°56' E 121°53'0 0.0
2014-Oct-15 02:33N 29°56' E 121°53'0 0.0
2014-Oct-15 01:21N 29°56' E 121°53'0 0.0
2014-Oct-14 18:21N 29°56' E 121°53'0 0.0
2014-Oct-14 16:15N 29°56' E 121°53'0 0.0
2014-Oct-14 15:27N 29°56' E 121°53'0 0.0
2014-Oct-14 14:33N 29°56' E 121°53'0 0.1
2014-Oct-14 13:34N 29°56' E 121°53'2 0.8
2014-Oct-14 11:25N 29°57' E 121°55'0 0.1
2014-Oct-14 09:31N 29°57' E 121°55'0 0.0
2014-Oct-14 08:22N 29°57' E 121°55'0 0.3
2014-Oct-14 06:34N 29°57' E 121°55'6 5.5
2014-Oct-14 05:33N 29°56' E 122°01'1010.3
2014-Oct-14 04:33N 29°52' E 122°12'1010.3
2014-Oct-14 03:33N 29°44' E 122°21'9 8.8
2014-Oct-14 02:33N 29°42' E 122°30'5 4.8
2014-Oct-14 01:33N 29°40' E 122°35'5 5.4
2014-Oct-14 00:33N 29°41' E 122°42'  
Track history (hours):
 
Tides and Currents Weather Stations Pressure Air Temp Water Temp Dewpoint Dewpoint Depression Visibility Wind Speed Wind Dir Waves Ship Positions

Global Enterprise

Last reported at 2014-Oct-23 15:33 UTC. Time now 2014-Oct-26 02:59 UTC.
Position N 30°60' E 122°29'.

Length 290 m; draft 8.3 m.

Type: Cargo ship. MMSI: 356308000.

Date/timePositionNaut miles runAvg speedWind from/ knotsBaromVisibWave heightAir tempDewpointWater temp
2014-Oct-23 15:33N 30°60' E 122°29'2610.4
2014-Oct-23 13:06N 31°05' E 121°60'1810.8
2014-Oct-23 11:28N 31°17' E 121°44'1111.8
2014-Oct-23 10:33N 31°23' E 121°34'9 8.8
2014-Oct-23 09:33N 31°29' E 121°26'9 9.0
2014-Oct-23 08:33N 31°35' E 121°18'9 6.6
2014-Oct-23 07:09N 31°41' E 121°10'0 0.0
2014-Oct-23 06:15N 31°41' E 121°10'0 0.0
2014-Oct-23 05:33N 31°41' E 121°10'0 0.0
2014-Oct-23 04:15N 31°41' E 121°10'0 0.0
2014-Oct-23 03:22N 31°41' E 121°10'0 0.0
2014-Oct-23 02:16N 31°41' E 121°10'0 0.0
2014-Oct-23 01:10N 31°41' E 121°10'0 0.0
2014-Oct-23 00:06N 31°41' E 121°10'0 0.0
2014-Oct-22 23:33N 31°41' E 121°10'0 0.0
2014-Oct-22 22:24N 31°41' E 121°10'0 0.0
2014-Oct-22 21:30N 31°41' E 121°10'0 0.0
2014-Oct-22 20:33N 31°41' E 121°10'0 0.0
2014-Oct-22 19:33N 31°41' E 121°10'0 0.0
2014-Oct-22 18:33N 31°41' E 121°10'0 0.0
2014-Oct-22 17:33N 31°41' E 121°10'0 0.0
2014-Oct-22 16:27N 31°41' E 121°10'0 0.0
2014-Oct-22 15:30N 31°41' E 121°10'0 0.0
2014-Oct-22 14:22N 31°41' E 121°10'0 0.0
2014-Oct-22 13:27N 31°41' E 121°10'0 0.0
2014-Oct-22 12:28N 31°41' E 121°10'0 0.0
2014-Oct-22 11:31N 31°41' E 121°10'0 0.0
2014-Oct-22 10:15N 31°41' E 121°10'0 0.0
2014-Oct-22 09:27N 31°41' E 121°10'0 0.0
2014-Oct-22 08:33N 31°41' E 121°10'0 0.0
2014-Oct-22 07:27N 31°41' E 121°10'0 0.0
2014-Oct-22 06:21N 31°41' E 121°10'0 0.0
2014-Oct-22 05:16N 31°41' E 121°10'0 0.0
2014-Oct-22 04:18N 31°41' E 121°10'0 0.0
2014-Oct-22 03:30N 31°41' E 121°10'0 0.0
2014-Oct-22 02:33N 31°41' E 121°10'0 0.0
2014-Oct-22 01:33N 31°41' E 121°10'0 0.0
2014-Oct-22 00:18N 31°41' E 121°10'0 0.0
2014-Oct-21 23:30N 31°41' E 121°10'0 0.0
2014-Oct-21 22:30N 31°41' E 121°10'0 0.0
2014-Oct-21 21:33N 31°41' E 121°10'0 0.0
2014-Oct-21 20:30N 31°41' E 121°10'0 0.0
2014-Oct-21 19:33N 31°41' E 121°10'0 0.0
2014-Oct-21 18:27N 31°41' E 121°10'0 0.0
2014-Oct-21 17:33N 31°41' E 121°10'0 0.0
2014-Oct-21 16:24N 31°41' E 121°10'0 0.0
2014-Oct-21 15:33N 31°41' E 121°10'0 0.0
2014-Oct-21 14:21N 31°41' E 121°10'0 0.0
2014-Oct-21 09:21N 31°41' E 121°10'0 0.0
2014-Oct-21 08:29N 31°41' E 121°10'4 4.3
2014-Oct-21 07:33N 31°39' E 121°14'5 4.6
2014-Oct-21 06:32N 31°36' E 121°19'0 0.3
2014-Oct-21 05:26N 31°36' E 121°18'4 4.3
2014-Oct-21 04:33N 31°33' E 121°20'1111.1
2014-Oct-21 03:33N 31°26' E 121°30'9 9.3
2014-Oct-21 02:33N 31°21' E 121°40'10 9.9
2014-Oct-21 01:33N 31°17' E 121°50'1110.5
2014-Oct-21 00:28N 31°14' E 122°03'1011.2
2014-Oct-20 23:33N 31°09' E 122°13'1211.7
2014-Oct-20 22:33N 31°06' E 122°27'7 6.4
2014-Oct-20 21:31N 31°10' E 122°33'4 0.3
2014-Oct-20 09:22N 31°13' E 122°36'0 0.0
2014-Oct-18 18:19N 31°13' E 122°37'0 0.0
2014-Oct-18 03:31N 31°13' E 122°37'0 0.0
2014-Oct-17 15:04N 31°13' E 122°37'80 2.5
2014-Oct-16 06:33N 29°54' E 122°55'1110.5
2014-Oct-16 05:31N 29°47' E 122°45'1110.9
2014-Oct-16 04:33N 29°40' E 122°36'1111.0
2014-Oct-16 03:32N 29°43' E 122°24'1010.8
2014-Oct-16 02:34N 29°49' E 122°14'1111.0
2014-Oct-16 01:33N 29°55' E 122°04'9 9.3
2014-Oct-16 00:33N 29°56' E 121°53'0 0.2
2014-Oct-15 23:27N 29°56' E 121°53'0 0.0
2014-Oct-15 22:27N 29°56' E 121°53'0 0.0
2014-Oct-15 20:27N 29°56' E 121°53'0 0.0
2014-Oct-15 16:15N 29°56' E 121°53'0 0.0
2014-Oct-15 15:12N 29°56' E 121°53'0 0.0
2014-Oct-15 14:21N 29°56' E 121°53'0 0.0
2014-Oct-15 13:04N 29°56' E 121°53'0 0.0
2014-Oct-15 12:33N 29°56' E 121°53'0 0.0
2014-Oct-15 11:12N 29°56' E 121°53'0 0.0
2014-Oct-15 09:30N 29°56' E 121°53'0 0.0
2014-Oct-15 08:24N 29°56' E 121°53'0 0.0
2014-Oct-15 07:30N 29°56' E 121°53'0 0.0
2014-Oct-15 05:30N 29°56' E 121°53'0 0.0
2014-Oct-15 04:27N 29°56' E 121°53'0 0.0
2014-Oct-15 03:33N 29°56' E 121°53'0 0.0
2014-Oct-15 02:33N 29°56' E 121°53'0 0.0
2014-Oct-15 01:21N 29°56' E 121°53'0 0.0
2014-Oct-14 18:21N 29°56' E 121°53'0 0.0
2014-Oct-14 16:15N 29°56' E 121°53'0 0.0
2014-Oct-14 15:27N 29°56' E 121°53'0 0.0
2014-Oct-14 14:33N 29°56' E 121°53'0 0.1
2014-Oct-14 13:34N 29°56' E 121°53'2 0.8
2014-Oct-14 11:25N 29°57' E 121°55'0 0.1
2014-Oct-14 09:31N 29°57' E 121°55'0 0.0
2014-Oct-14 08:22N 29°57' E 121°55'0 0.3
2014-Oct-14 06:34N 29°57' E 121°55'6 5.5
2014-Oct-14 05:33N 29°56' E 122°01'1010.3
2014-Oct-14 04:33N 29°52' E 122°12'1010.3
2014-Oct-14 03:33N 29°44' E 122°21'9 8.8
2014-Oct-14 02:33N 29°42' E 122°30'5 4.8
2014-Oct-14 01:33N 29°40' E 122°35'5 5.4
2014-Oct-14 00:33N 29°41' E 122°42'  

Dump ship's entire track history